INFORMACIÓN METAR y TAF
METAR FOR EDDS
ADDS - METARS form results

(0132 UTC 15 August 2020)
Data provider http://aviationweather.gov/metar/data/
 
METAR text: EDDS 150120Z VRB02KT 9999 FEW034 17/16 Q1016
Conditions at: EDDS (STUTTGART/ECHTER, DE) observed 0120 UTC 15 August 2020
Temperature: 17.0°C (63°F)
Dewpoint: 16.0°C (61°F) [RH = 94%]
Pressure (altimeter): 30.00 inches Hg (1016.0 mb)
Winds: variable direction winds at 2 MPH (2 knots; 1.0 m/s)
Visibility: 6 or more miles (10+ km)
Ceiling: at least 12,000 feet AGL
Clouds: few clouds at 3400 feet AGL
Weather: no significant weather observed at this time

METAR text: EDDS 150050Z VRB01KT 9999 FEW034 18/16 Q1016
Conditions at: EDDS (STUTTGART/ECHTER, DE) observed 0050 UTC 15 August 2020
Temperature: 18.0°C (64°F)
Dewpoint: 16.0°C (61°F) [RH = 88%]
Pressure (altimeter): 30.00 inches Hg (1016.0 mb)
Winds: variable direction winds at 1 MPH (1 knots; 0.5 m/s)
Visibility: 6 or more miles (10+ km)
Ceiling: at least 12,000 feet AGL
Clouds: few clouds at 3400 feet AGL
Weather: no significant weather observed at this time

Forecast for: EDDS (STUTTGART/ECHTER, DE)
Text: TAF EDDS 142300Z 1500/1524 20003KT CAVOK
Forecast period: 0000 UTC 15 August 2020 to 0000 UTC 16 August 2020
Forecast type: FROM: standard forecast or significant change
Winds: from the SSW (200 degrees) at 3 MPH (3 knots; 1.5 m/s)
Visibility: 6 or more miles (10+ km)
Ceiling: unknown
Clouds: missing
Weather: NSW  (no significant weather)
Text: PROB30
Forecast period: 1200 to 1600 UTC 15 August 2020
Forecast type: TEMPORARY: The following changes expected for less than half the time period
Visibility: 2.49 miles (4.01 km)
Ceiling: 4000 feet AGL
Clouds: broken clouds at 4000 feet AGL
Weather: TSRA  (rain associated with thunderstorm(s))

MAPA DE AEROPUERTO

INFORMACIÓN DE PISTA
Pista 07 Longitud 10974 ft Ancho 148 ft
Elevación 1267 ft Umbral desplazado 984 ft Rumbo de pista 74
Pista 25 Longitud 10974 ft Ancho 148 ft
Elevación 1181 ft Umbral desplazado 0 ft Rumbo de pista 254

FRECUANCIAS DEL AEROPUERTO
Tipo ATIS Nombre ATIS Frecuencia 126.125 MHZ
Tipo CLD Nombre CLNC DEL Frecuencia 121.9 MHZ
Tipo DIR Nombre DIR Frecuencia 119.85 MHZ
Tipo GND Nombre GND Frecuencia 118.6 MHZ
Tipo INFO Nombre LANGEN INF Frecuencia 128.95 MHZ
Tipo MISC Nombre DEICING Frecuencia 136.825 MHZ
Tipo PTD Nombre BASE OPS P Frecuencia 31.8 MHZ
Tipo RDR Nombre LANGEN RAD Frecuencia 119.2 MHZ
Tipo RMP Nombre APRON Frecuencia 121.7 MHZ
Tipo TWR Nombre TWR Frecuencia 118.8 MHZ

RADIO AYUDAS DEL AEROPUERTO
Tipo VOR-DME Nombre Luburg Frecuencia 109200 KHZ
Tipo NDB Nombre Stuttgart Frecuencia 306 KHZ
Tipo DME Nombre Stuttgart Frecuencia 115450 KHZ
Tipo NDB Nombre Stuttgart Frecuencia 384 KHZ